createdAt,value
2023-04-25T00:00:22.637Z,3.50
2023-04-25T00:01:22.655Z,3.55
2023-04-25T00:02:22.784Z,3.24
2023-04-25T00:03:23.141Z,3.75
2023-04-25T00:04:23.380Z,3.74
2023-04-25T00:05:21.939Z,3.53
2023-04-25T00:06:22.739Z,3.29
2023-04-25T00:07:22.784Z,3.59
2023-04-25T00:08:22.814Z,3.75
2023-04-25T00:09:22.854Z,3.71
2023-04-25T00:10:22.893Z,3.82
2023-04-25T00:11:22.929Z,4.22
2023-04-25T00:12:22.962Z,3.42
2023-04-25T00:13:23.143Z,3.89
2023-04-25T00:14:23.061Z,3.87
2023-04-25T00:15:23.056Z,3.71
2023-04-25T00:16:23.166Z,3.53
2023-04-25T00:17:23.178Z,3.66
2023-04-25T00:18:23.131Z,4.55
2023-04-25T00:19:23.180Z,3.81
2023-04-25T00:20:23.190Z,3.99
2023-04-25T00:21:23.227Z,3.89
2023-04-25T00:22:23.267Z,4.13
2023-04-25T00:23:23.287Z,4.30
2023-04-25T00:24:23.346Z,4.03
2023-04-25T00:25:23.374Z,4.18
2023-04-25T00:26:23.402Z,3.91
2023-04-25T00:27:23.440Z,3.78
2023-04-25T00:28:23.492Z,3.86
2023-04-25T00:29:23.507Z,4.26
2023-04-25T00:30:23.596Z,4.24
2023-04-25T00:31:23.621Z,3.74
2023-04-25T00:32:23.603Z,4.12
2023-04-25T00:33:23.619Z,4.01
2023-04-25T00:34:23.655Z,4.33
2023-04-25T00:35:23.692Z,4.08
2023-04-25T00:36:23.712Z,3.98
2023-04-25T00:37:23.785Z,4.18
2023-04-25T00:38:23.766Z,3.96
2023-04-25T00:39:23.800Z,4.11
2023-04-25T00:40:23.825Z,4.03
2023-04-25T00:41:23.855Z,4.12
2023-04-25T00:42:23.866Z,3.75
2023-04-25T00:43:23.884Z,4.02
2023-04-25T00:44:23.909Z,4.22
2023-04-25T00:45:23.922Z,3.92
2023-04-25T00:46:24.908Z,4.29
2023-04-25T00:47:23.985Z,4.23
2023-04-25T00:48:24.001Z,3.97
2023-04-25T00:49:24.076Z,3.68
2023-04-25T00:50:24.159Z,3.93
2023-04-25T00:51:24.226Z,3.71
2023-04-25T00:52:24.282Z,3.57
2023-04-25T00:53:24.314Z,3.35
2023-04-25T00:54:24.346Z,3.36
2023-04-25T00:55:24.363Z,3.11
2023-04-25T00:56:24.413Z,3.25
2023-04-25T00:57:24.408Z,3.38
2023-04-25T00:58:24.462Z,3.87
2023-04-25T00:59:24.508Z,3.40
2023-04-25T01:00:24.582Z,3.28
2023-04-25T01:01:24.752Z,3.30
2023-04-25T01:02:24.802Z,3.72
2023-04-25T01:03:24.896Z,3.51
2023-04-25T01:04:24.770Z,4.02
2023-04-25T01:05:24.770Z,3.21
2023-04-25T01:06:24.797Z,3.26
2023-04-25T01:07:24.896Z,3.31
2023-04-25T01:08:24.947Z,3.41
2023-04-25T01:09:25.021Z,3.14
2023-04-25T01:10:25.075Z,3.71
2023-04-25T01:11:25.103Z,3.36
2023-04-25T01:12:25.121Z,3.51
2023-04-25T01:13:25.164Z,3.23
2023-04-25T01:14:25.205Z,3.67
2023-04-25T01:15:25.255Z,3.30
2023-04-25T01:16:25.370Z,3.23
2023-04-25T01:17:25.424Z,3.71
2023-04-25T01:18:25.506Z,3.55
2023-04-25T01:19:25.503Z,3.82
2023-04-25T01:20:25.493Z,3.96
2023-04-25T01:21:25.556Z,3.85
2023-04-25T01:22:25.589Z,4.10
2023-04-25T01:23:25.636Z,3.73
2023-04-25T01:24:25.660Z,3.71
2023-04-25T01:25:25.706Z,3.96
2023-04-25T01:26:25.779Z,3.38
2023-04-25T01:27:25.835Z,3.61
2023-04-25T01:28:25.885Z,3.61
2023-04-25T01:29:25.957Z,3.79
2023-04-25T01:30:26.013Z,3.38
2023-04-25T01:31:26.123Z,3.01
2023-04-25T01:32:26.120Z,3.84
2023-04-25T01:33:26.170Z,3.68
2023-04-25T01:34:26.235Z,3.22
2023-04-25T01:35:26.260Z,3.73
2023-04-25T01:36:26.284Z,3.55
2023-04-25T01:37:26.279Z,3.63
2023-04-25T01:38:26.314Z,3.35
2023-04-25T01:39:26.313Z,3.31
2023-04-25T01:40:26.332Z,3.26
2023-04-25T01:41:26.329Z,3.18
2023-04-25T01:42:26.345Z,3.55
2023-04-25T01:43:26.346Z,3.12
2023-04-25T01:44:26.350Z,3.27
2023-04-25T01:45:26.363Z,4.03
2023-04-25T01:46:26.480Z,3.24
2023-04-25T01:47:26.463Z,2.90
2023-04-25T01:48:26.401Z,2.86
2023-04-25T01:49:26.412Z,2.84
2023-04-25T01:50:26.432Z,2.86
2023-04-25T01:51:26.435Z,2.65
2023-04-25T01:52:26.420Z,2.51
2023-04-25T01:53:26.408Z,2.92
2023-04-25T01:54:26.437Z,3.03
2023-04-25T01:55:26.441Z,2.65
2023-04-25T01:56:26.426Z,2.65
2023-04-25T01:57:26.439Z,2.31
2023-04-25T01:58:26.473Z,2.45
2023-04-25T01:59:26.524Z,2.76
2023-04-25T02:00:26.588Z,2.68
2023-04-25T02:01:26.674Z,2.43
2023-04-25T02:02:26.834Z,2.75
2023-04-25T02:03:26.805Z,2.60
2023-04-25T02:04:26.889Z,2.83
2023-04-25T02:05:26.854Z,3.41
2023-04-25T02:06:26.931Z,3.60
2023-04-25T02:07:26.999Z,3.31
2023-04-25T02:08:27.063Z,3.41
2023-04-25T02:09:27.089Z,3.46
2023-04-25T02:10:27.111Z,3.55
2023-04-25T02:11:27.151Z,3.21
2023-04-25T02:12:27.228Z,3.11
2023-04-25T02:13:27.246Z,3.39
2023-04-25T02:14:27.306Z,3.20
2023-04-25T02:15:27.385Z,3.12
2023-04-25T02:16:27.515Z,3.19
2023-04-25T02:17:27.497Z,3.59
2023-04-25T02:18:27.559Z,3.98
2023-04-25T02:19:27.656Z,4.22
2023-04-25T02:20:27.673Z,3.54
2023-04-25T02:21:27.752Z,3.90
2023-04-25T02:22:27.857Z,3.74
2023-04-25T02:23:27.886Z,4.38
2023-04-25T02:24:27.930Z,3.79
2023-04-25T02:25:27.984Z,3.29
2023-04-25T02:26:28.023Z,3.41
2023-04-25T02:27:28.038Z,3.48
2023-04-25T02:28:28.059Z,3.64
2023-04-25T02:29:28.080Z,4.05
2023-04-25T02:30:28.131Z,4.30
2023-04-25T02:31:28.209Z,4.38
2023-04-25T02:32:28.323Z,4.22
2023-04-25T02:33:28.319Z,4.56
2023-04-25T02:34:28.388Z,4.22
2023-04-25T02:35:28.442Z,4.05
2023-04-25T02:36:28.501Z,3.86
2023-04-25T02:37:28.555Z,3.45
2023-04-25T02:38:28.632Z,3.03
2023-04-25T02:39:28.652Z,3.10
2023-04-25T02:40:28.707Z,3.47
2023-04-25T02:41:28.755Z,3.53
2023-04-25T02:42:28.810Z,3.32
2023-04-25T02:43:28.889Z,3.18
2023-04-25T02:44:29.001Z,4.01
2023-04-25T02:45:29.039Z,2.91
2023-04-25T02:46:38.857Z,2.92
2023-04-25T02:47:29.263Z,2.86
2023-04-25T02:48:29.141Z,2.46
2023-04-25T02:49:29.155Z,2.47
2023-04-25T02:50:29.161Z,2.78
2023-04-25T02:51:29.181Z,2.59
2023-04-25T02:52:29.205Z,2.46
2023-04-25T02:53:29.243Z,2.59
2023-04-25T02:54:29.349Z,2.64
2023-04-25T02:55:29.276Z,2.73
2023-04-25T02:56:29.321Z,2.57
2023-04-25T02:57:29.326Z,3.28
2023-04-25T02:58:29.357Z,3.44
2023-04-25T02:59:29.387Z,3.18
2023-04-25T03:00:29.459Z,3.52
2023-04-25T03:01:29.445Z,3.60
2023-04-25T03:02:29.551Z,3.24
2023-04-25T03:03:29.520Z,3.06
2023-04-25T03:04:29.564Z,3.08
2023-04-25T03:05:29.498Z,2.59
2023-04-25T03:06:29.494Z,3.10
2023-04-25T03:07:29.494Z,3.09
2023-04-25T03:08:29.497Z,2.96
2023-04-25T03:09:29.518Z,2.72
2023-04-25T03:10:29.541Z,2.52
2023-04-25T03:11:29.529Z,2.73
2023-04-25T03:12:29.531Z,2.53
2023-04-25T03:13:29.529Z,2.59
2023-04-25T03:14:29.533Z,2.94
2023-04-25T03:15:29.549Z,2.47
2023-04-25T03:16:29.595Z,2.72
2023-04-25T03:17:29.588Z,2.56
2023-04-25T03:18:29.561Z,2.79
2023-04-25T03:19:29.608Z,2.64
2023-04-25T03:20:29.676Z,2.67
2023-04-25T03:21:29.719Z,2.52
2023-04-25T03:22:29.770Z,2.50
2023-04-25T03:23:29.815Z,2.86
2023-04-25T03:24:29.910Z,2.26
2023-04-25T03:25:29.936Z,2.62
2023-04-25T03:26:29.997Z,2.34
2023-04-25T03:27:30.038Z,2.65
2023-04-25T03:28:30.131Z,2.63
2023-04-25T03:29:30.186Z,2.64
2023-04-25T03:30:30.258Z,2.49
2023-04-25T03:31:30.341Z,2.91
2023-04-25T03:32:30.390Z,2.91
2023-04-25T03:33:30.402Z,3.20
2023-04-25T03:34:30.456Z,3.05
2023-04-25T03:35:30.499Z,3.36
2023-04-25T03:36:30.529Z,2.88
2023-04-25T03:37:30.583Z,3.14
2023-04-25T03:38:30.610Z,2.80
2023-04-25T03:39:30.647Z,3.50
2023-04-25T03:40:30.682Z,2.73
2023-04-25T03:41:30.698Z,3.10
2023-04-25T03:42:30.749Z,2.67
2023-04-25T03:43:30.760Z,3.16
2023-04-25T03:44:30.804Z,2.90
2023-04-25T03:45:30.849Z,2.93
2023-04-25T03:46:31.048Z,3.29
2023-04-25T03:47:30.948Z,2.91
2023-04-25T03:48:30.956Z,2.93
2023-04-25T03:49:31.004Z,3.20
2023-04-25T03:50:31.026Z,3.46
2023-04-25T03:51:31.069Z,3.59
2023-04-25T03:52:31.090Z,3.28
2023-04-25T03:53:31.122Z,3.30
2023-04-25T03:54:31.159Z,3.50
2023-04-25T03:55:31.204Z,2.71
2023-04-25T03:56:31.260Z,2.66
2023-04-25T03:57:31.312Z,2.63
2023-04-25T03:58:31.397Z,2.50
2023-04-25T03:59:31.419Z,2.57
2023-04-25T04:00:31.477Z,2.05
2023-04-25T04:01:31.523Z,2.27
2023-04-25T04:02:31.636Z,2.42
2023-04-25T04:03:31.690Z,2.37
2023-04-25T04:04:31.878Z,2.12
2023-04-25T04:05:31.708Z,2.53
2023-04-25T04:06:31.701Z,2.32
2023-04-25T04:07:31.774Z,2.06
2023-04-25T04:08:31.867Z,2.25
2023-04-25T04:09:31.905Z,2.88
2023-04-25T04:10:31.976Z,2.41
2023-04-25T04:11:32.064Z,3.00
2023-04-25T04:12:32.127Z,3.03
2023-04-25T04:13:32.189Z,3.06
2023-04-25T04:14:32.283Z,3.17
2023-04-25T04:15:32.410Z,3.29
2023-04-25T04:16:34.425Z,3.06
2023-04-25T04:17:32.415Z,3.44
2023-04-25T04:18:32.404Z,2.93
2023-04-25T04:19:32.463Z,3.05
2023-04-25T04:20:32.443Z,3.22
2023-04-25T04:21:32.417Z,2.97
2023-04-25T04:22:32.432Z,3.42
2023-04-25T04:23:32.400Z,3.45
2023-04-25T04:24:32.410Z,3.15
2023-04-25T04:25:32.398Z,3.29
2023-04-25T04:26:32.390Z,3.14
2023-04-25T04:27:32.379Z,3.44
2023-04-25T04:28:32.389Z,3.21
2023-04-25T04:29:32.372Z,3.42
2023-04-25T04:30:32.389Z,3.46
2023-04-25T04:31:32.396Z,2.80
2023-04-25T04:32:32.423Z,3.23
2023-04-25T04:33:32.352Z,3.18
2023-04-25T04:34:32.393Z,3.33
2023-04-25T04:35:32.361Z,3.24
2023-04-25T04:36:32.338Z,3.26
2023-04-25T04:37:32.351Z,2.84
2023-04-25T04:38:32.336Z,3.15
2023-04-25T04:39:32.343Z,3.32
2023-04-25T04:40:32.357Z,2.88
2023-04-25T04:41:32.369Z,3.61
2023-04-25T04:42:32.390Z,2.95
2023-04-25T04:43:32.362Z,3.45
2023-04-25T04:44:32.370Z,3.60
2023-04-25T04:45:32.376Z,3.65
2023-04-25T04:46:32.485Z,3.29
2023-04-25T04:47:32.512Z,3.53
2023-04-25T04:48:32.535Z,3.32
2023-04-25T04:49:32.558Z,3.42
2023-04-25T04:50:32.608Z,3.29
2023-04-25T04:51:32.658Z,3.44
2023-04-25T04:52:32.710Z,3.84
2023-04-25T04:53:32.755Z,3.04
2023-04-25T04:54:32.796Z,3.50
2023-04-25T04:55:32.851Z,3.39
2023-04-25T04:56:32.871Z,3.95
2023-04-25T04:57:32.939Z,3.30
2023-04-25T04:58:32.943Z,3.80
2023-04-25T04:59:32.976Z,3.57
2023-04-25T05:00:33.045Z,4.11
2023-04-25T05:01:33.053Z,3.90
2023-04-25T05:02:33.281Z,3.93
2023-04-25T05:03:33.247Z,4.12
2023-04-25T05:04:33.193Z,4.56
2023-04-25T05:05:33.102Z,3.97
2023-04-25T05:06:33.129Z,4.08
2023-04-25T05:07:33.158Z,4.10
2023-04-25T05:08:33.151Z,4.52
2023-04-25T05:09:33.160Z,4.90
2023-04-25T05:10:33.181Z,4.56
2023-04-25T05:11:33.197Z,4.67
2023-04-25T05:12:34.124Z,4.83
2023-04-25T05:13:33.191Z,4.80
2023-04-25T05:14:33.182Z,4.91
2023-04-25T05:15:33.203Z,5.12
2023-04-25T05:16:33.265Z,5.12
2023-04-25T05:17:33.233Z,5.21
2023-04-25T05:18:33.203Z,4.88
2023-04-25T05:19:33.193Z,5.34
2023-04-25T05:20:33.220Z,5.43
2023-04-25T05:21:33.191Z,5.32
2023-04-25T05:22:33.461Z,5.56
2023-04-25T05:23:33.521Z,5.29
2023-04-25T05:24:33.189Z,4.33
2023-04-25T05:25:33.197Z,4.66
2023-04-25T05:26:33.186Z,4.90
2023-04-25T05:27:33.208Z,5.51
2023-04-25T05:28:33.177Z,4.88
2023-04-25T05:29:33.174Z,5.47
2023-04-25T05:30:33.170Z,5.64
2023-04-25T05:31:33.216Z,5.80
2023-04-25T05:32:33.179Z,6.11
2023-04-25T05:33:33.191Z,5.70
2023-04-25T05:34:33.281Z,5.80
2023-04-25T05:35:33.264Z,5.72
2023-04-25T05:36:33.145Z,5.23
2023-04-25T05:37:33.456Z,6.20
2023-04-25T05:38:34.842Z,5.96
2023-04-25T05:39:33.131Z,6.11
2023-04-25T05:40:33.082Z,6.89
2023-04-25T05:41:33.093Z,7.28
2023-04-25T05:42:33.506Z,7.29
2023-04-25T05:43:33.050Z,8.22
2023-04-25T05:44:33.068Z,7.02
2023-04-25T05:45:33.039Z,8.07
2023-04-25T05:46:33.038Z,7.21
2023-04-25T05:47:33.542Z,7.10
2023-04-25T05:48:32.996Z,6.49
2023-04-25T05:49:32.985Z,6.27
2023-04-25T05:50:32.983Z,6.23
2023-04-25T05:51:32.945Z,6.50
2023-04-25T05:52:32.955Z,6.07
2023-04-25T05:53:32.900Z,5.90
2023-04-25T05:54:36.079Z,6.52
2023-04-25T05:55:32.959Z,6.39
2023-04-25T05:56:32.851Z,6.01
2023-04-25T05:57:32.814Z,5.92
2023-04-25T05:58:33.068Z,6.47
2023-04-25T05:59:32.806Z,5.86
2023-04-25T06:00:33.547Z,6.42
2023-04-25T06:01:32.728Z,6.08
2023-04-25T06:02:32.863Z,5.72
2023-04-25T06:03:33.125Z,5.31
2023-04-25T06:04:36.111Z,4.73
2023-04-25T06:05:40.071Z,4.79
2023-04-25T06:06:32.598Z,4.74
2023-04-25T06:07:32.991Z,4.48
2023-04-25T06:08:32.998Z,4.87
2023-04-25T06:09:32.531Z,4.96
2023-04-25T06:10:35.678Z,4.38
2023-04-25T06:11:32.497Z,4.51
2023-04-25T06:12:32.474Z,5.04
2023-04-25T06:13:32.493Z,4.64
2023-04-25T06:14:32.424Z,4.39
2023-04-25T06:15:32.369Z,4.06
2023-04-25T06:16:32.469Z,4.64
2023-04-25T06:17:32.363Z,4.68
2023-04-25T06:18:32.276Z,5.62
2023-04-25T06:19:32.275Z,5.50
2023-04-25T06:20:32.217Z,5.11
2023-04-25T06:21:32.240Z,4.98
2023-04-25T06:22:32.205Z,5.36
2023-04-25T06:23:32.513Z,5.27
2023-04-25T06:24:32.129Z,5.35
2023-04-25T06:25:32.133Z,5.56
2023-04-25T06:26:32.124Z,4.96
2023-04-25T06:27:32.139Z,5.87
2023-04-25T06:28:32.125Z,5.28
2023-04-25T06:29:32.122Z,5.45
2023-04-25T06:30:32.576Z,5.26
2023-04-25T06:31:32.121Z,5.59
2023-04-25T06:32:32.155Z,5.03
2023-04-25T06:33:32.123Z,5.06
2023-04-25T06:34:32.080Z,5.44
2023-04-25T06:35:32.044Z,4.75
2023-04-25T06:36:32.026Z,5.33
2023-04-25T06:37:32.495Z,4.43
2023-04-25T06:38:31.991Z,5.45
2023-04-25T06:39:31.961Z,5.22
2023-04-25T06:40:31.969Z,5.49
2023-04-25T06:41:31.944Z,5.41
2023-04-25T06:42:31.958Z,3.97
2023-04-25T06:43:31.952Z,4.22
2023-04-25T06:44:32.510Z,4.46
2023-04-25T06:45:32.446Z,5.21
2023-04-25T06:46:33.033Z,4.15
2023-04-25T06:47:32.582Z,4.55
2023-04-25T06:48:32.199Z,5.60
2023-04-25T06:49:35.374Z,5.79
2023-04-25T06:50:32.517Z,5.90
2023-04-25T06:51:32.180Z,5.81
2023-04-25T06:52:32.982Z,5.31
2023-04-25T06:53:33.086Z,5.76
2023-04-25T06:54:32.595Z,5.68
2023-04-25T06:55:32.699Z,5.12
2023-04-25T06:56:32.360Z,4.30
2023-04-25T06:57:32.259Z,2.68
2023-04-25T06:58:32.511Z,2.55
2023-04-25T06:59:32.171Z,3.15
2023-04-25T07:00:32.261Z,3.56
2023-04-25T07:01:32.497Z,4.08
2023-04-25T07:02:32.147Z,3.07
2023-04-25T07:03:32.124Z,2.84
2023-04-25T07:04:32.199Z,3.13
2023-04-25T07:05:31.982Z,3.00
2023-04-25T07:06:31.886Z,2.95
2023-04-25T07:07:32.251Z,3.09
2023-04-25T07:08:31.821Z,2.87
2023-04-25T07:09:31.826Z,3.01
2023-04-25T07:10:32.003Z,2.83
2023-04-25T07:11:31.854Z,2.95
2023-04-25T07:12:31.940Z,3.08
2023-04-25T07:13:31.728Z,3.20
2023-04-25T07:14:31.713Z,3.50
2023-04-25T07:15:32.023Z,3.61
2023-04-25T07:16:31.641Z,3.12
2023-04-25T07:17:31.609Z,3.22
2023-04-25T07:18:31.571Z,3.02
2023-04-25T07:19:31.608Z,3.50
2023-04-25T07:20:31.551Z,3.05
2023-04-25T07:21:31.535Z,3.32
2023-04-25T07:22:31.980Z,3.30
2023-04-25T07:23:31.589Z,3.08
2023-04-25T07:24:31.587Z,2.84
2023-04-25T07:25:31.610Z,3.10
2023-04-25T07:26:31.567Z,3.68
2023-04-25T07:27:31.897Z,3.26
2023-04-25T07:28:31.786Z,3.47
2023-04-25T07:29:31.927Z,2.92
2023-04-25T07:30:31.666Z,3.13
2023-04-25T07:31:32.028Z,2.52
2023-04-25T07:32:31.909Z,2.92
2023-04-25T07:33:31.722Z,3.35
2023-04-25T07:34:31.897Z,3.90
2023-04-25T07:35:32.029Z,3.53
2023-04-25T07:36:32.434Z,3.95
2023-04-25T07:37:31.964Z,3.98
2023-04-25T07:38:31.997Z,3.73
2023-04-25T07:39:32.039Z,4.09
2023-04-25T07:40:32.381Z,4.13
2023-04-25T07:41:32.072Z,3.82
2023-04-25T07:42:31.882Z,4.38
2023-04-25T07:43:32.250Z,3.92
2023-04-25T07:44:32.327Z,3.55
2023-04-25T07:45:32.074Z,3.89
2023-04-25T07:46:32.188Z,3.29
2023-04-25T07:47:32.320Z,3.72
2023-04-25T07:48:32.623Z,3.45
2023-04-25T07:49:32.697Z,3.74
2023-04-25T07:50:32.236Z,4.02
2023-04-25T07:51:32.327Z,4.10
2023-04-25T07:52:32.146Z,3.89
2023-04-25T07:53:32.962Z,3.73
2023-04-25T07:54:32.486Z,4.15
2023-04-25T07:55:32.676Z,3.34
2023-04-25T07:56:45.110Z,3.48
2023-04-25T07:57:32.510Z,3.95
2023-04-25T07:58:33.396Z,3.72
2023-04-25T07:59:32.182Z,3.15
2023-04-25T08:00:32.188Z,3.14
2023-04-25T08:01:32.217Z,3.39
2023-04-25T08:02:32.602Z,3.13
2023-04-25T08:03:32.398Z,3.06
2023-04-25T08:04:32.821Z,2.73
2023-04-25T08:05:35.647Z,3.02
2023-04-25T08:06:33.505Z,3.15
2023-04-25T08:07:32.517Z,3.57
2023-04-25T08:08:32.500Z,3.20
2023-04-25T08:09:32.285Z,3.54
2023-04-25T08:10:32.490Z,2.95
2023-04-25T08:11:32.490Z,3.04
2023-04-25T08:12:32.619Z,3.27
2023-04-25T08:13:32.515Z,3.76
2023-04-25T08:14:32.482Z,3.94
2023-04-25T08:15:32.610Z,4.11
2023-04-25T08:16:32.596Z,4.20
2023-04-25T08:17:32.585Z,3.53
2023-04-25T08:18:33.004Z,3.79
2023-04-25T08:19:32.712Z,4.43
2023-04-25T08:20:32.692Z,4.09
2023-04-25T08:21:32.759Z,4.40
2023-04-25T08:22:32.812Z,4.53
2023-04-25T08:23:33.000Z,3.70
2023-04-25T08:24:32.891Z,3.70
2023-04-25T08:25:33.425Z,3.62
2023-04-25T08:26:33.048Z,3.12
2023-04-25T08:27:33.463Z,3.38
2023-04-25T08:28:33.002Z,3.13
2023-04-25T08:29:33.000Z,3.24
2023-04-25T08:30:33.052Z,3.14
2023-04-25T08:31:32.968Z,3.78
2023-04-25T08:32:32.952Z,3.81
2023-04-25T08:33:33.018Z,4.34
2023-04-25T08:34:32.946Z,4.17
2023-04-25T08:35:32.950Z,3.82
2023-04-25T08:36:39.442Z,3.74
2023-04-25T08:37:32.894Z,4.09
2023-04-25T08:38:33.558Z,3.49
2023-04-25T08:39:33.119Z,3.63
2023-04-25T08:40:33.048Z,3.18
2023-04-25T08:41:33.020Z,2.73
2023-04-25T08:42:32.998Z,2.65
2023-04-25T08:43:36.197Z,2.85
2023-04-25T08:44:33.017Z,2.62
2023-04-25T08:45:32.938Z,2.71
2023-04-25T08:46:34.145Z,2.54
2023-04-25T08:47:33.116Z,2.90
2023-04-25T08:48:33.026Z,2.81
2023-04-25T08:49:32.801Z,2.11
2023-04-25T08:50:32.816Z,3.10
2023-04-25T08:51:33.252Z,3.06
2023-04-25T08:52:32.818Z,2.69
2023-04-25T08:53:34.050Z,2.90
2023-04-25T08:54:35.166Z,2.99
2023-04-25T08:55:32.765Z,3.28
2023-04-25T08:56:32.745Z,2.55
2023-04-25T08:57:32.718Z,2.92
2023-04-25T08:58:33.076Z,2.98
2023-04-25T08:59:32.609Z,2.45
2023-04-25T09:00:32.751Z,3.02
2023-04-25T09:01:32.866Z,2.66
2023-04-25T09:02:32.602Z,3.08
2023-04-25T09:03:32.981Z,3.26
2023-04-25T09:04:32.434Z,2.64
2023-04-25T09:05:32.304Z,2.52
2023-04-25T09:06:32.258Z,2.93
2023-04-25T09:07:32.183Z,3.14
2023-04-25T09:08:32.155Z,3.10
2023-04-25T09:09:32.525Z,3.12
2023-04-25T09:10:33.148Z,3.48
2023-04-25T09:11:32.539Z,3.06
2023-04-25T09:12:32.114Z,2.84
2023-04-25T09:13:32.205Z,3.54
2023-04-25T09:14:32.126Z,3.08
2023-04-25T09:15:32.057Z,3.05
2023-04-25T09:16:33.659Z,3.43
2023-04-25T09:17:32.103Z,3.56
2023-04-25T09:18:31.855Z,3.32
2023-04-25T09:19:40.318Z,3.80
2023-04-25T09:20:33.361Z,3.76
2023-04-25T09:21:32.032Z,3.60
2023-04-25T09:22:31.628Z,3.34
2023-04-25T09:23:31.569Z,2.63
2023-04-25T09:24:31.513Z,3.02
2023-04-25T09:25:31.451Z,2.93
2023-04-25T09:26:31.555Z,2.50
2023-04-25T09:27:31.423Z,2.63
2023-04-25T09:28:31.297Z,3.38
2023-04-25T09:29:31.509Z,2.45
2023-04-25T09:30:31.512Z,2.71
2023-04-25T09:31:31.649Z,2.70
2023-04-25T09:32:31.140Z,2.87
2023-04-25T09:33:31.564Z,2.61
2023-04-25T09:34:31.606Z,2.42
2023-04-25T09:35:31.348Z,2.65
2023-04-25T09:36:30.704Z,2.76
2023-04-25T09:37:30.684Z,2.19
2023-04-25T09:38:30.762Z,2.55
2023-04-25T09:39:31.015Z,2.79
2023-04-25T09:40:31.015Z,2.33
2023-04-25T09:41:30.558Z,2.24
2023-04-25T09:42:30.533Z,2.70
2023-04-25T09:43:30.527Z,2.30
2023-04-25T09:44:30.494Z,2.75
2023-04-25T09:45:30.506Z,2.90
2023-04-25T09:46:30.516Z,2.35
2023-04-25T09:47:30.535Z,2.10
2023-04-25T09:48:30.435Z,2.51
2023-04-25T09:49:30.469Z,2.41
2023-04-25T09:50:30.348Z,2.24
2023-04-25T09:51:30.291Z,2.64
2023-04-25T09:52:30.217Z,2.34
2023-04-25T09:53:30.162Z,2.73
2023-04-25T09:54:30.533Z,2.53
2023-04-25T09:55:29.985Z,2.12
2023-04-25T09:56:29.929Z,2.42
2023-04-25T09:57:29.843Z,2.39
2023-04-25T09:58:31.851Z,2.30
2023-04-25T09:59:30.027Z,2.39
2023-04-25T10:00:29.612Z,2.27
2023-04-25T10:01:29.530Z,2.41
2023-04-25T10:02:29.568Z,2.20
2023-04-25T10:03:29.454Z,2.58
2023-04-25T10:04:30.643Z,3.30
2023-04-25T10:05:29.234Z,3.15
2023-04-25T10:06:29.120Z,3.02
2023-04-25T10:07:29.043Z,2.87
2023-04-25T10:08:28.988Z,3.14
2023-04-25T10:09:28.897Z,2.64
2023-04-25T10:10:30.777Z,2.90
2023-04-25T10:11:28.754Z,2.48
2023-04-25T10:12:28.693Z,2.10
2023-04-25T10:13:28.589Z,2.95
2023-04-25T10:14:29.025Z,2.77
2023-04-25T10:15:28.524Z,2.18
2023-04-25T10:16:28.469Z,2.40
2023-04-25T10:17:28.365Z,2.28
2023-04-25T10:18:28.536Z,2.47
2023-04-25T10:19:28.236Z,3.04
2023-04-25T10:20:28.153Z,3.00
2023-04-25T10:21:28.111Z,2.86
2023-04-25T10:22:28.026Z,2.65
2023-04-25T10:23:31.249Z,2.75
2023-04-25T10:24:28.024Z,2.75
2023-04-25T10:25:27.788Z,2.60
2023-04-25T10:27:26.676Z,2.85
2023-04-25T10:28:27.617Z,2.93
2023-04-25T10:29:28.080Z,2.49
2023-04-25T10:30:27.516Z,3.43
2023-04-25T10:31:27.639Z,2.94
2023-04-25T10:32:27.905Z,3.03
2023-04-25T10:33:28.050Z,2.81
2023-04-25T10:34:27.652Z,3.03
2023-04-25T10:35:27.728Z,3.73
2023-04-25T10:36:27.779Z,2.92
2023-04-25T10:37:28.140Z,2.73
2023-04-25T10:38:27.649Z,2.29
2023-04-25T10:39:28.062Z,2.27
2023-04-25T10:40:27.616Z,2.24
2023-04-25T10:41:27.603Z,2.05
2023-04-25T10:42:27.585Z,1.61
2023-04-25T10:43:27.590Z,1.69
2023-04-25T10:44:28.058Z,2.29
2023-04-25T10:45:27.737Z,1.98
2023-04-25T10:46:27.711Z,2.60
2023-04-25T10:47:27.669Z,2.27
2023-04-25T10:48:27.644Z,2.02
2023-04-25T10:49:28.070Z,2.29
2023-04-25T10:50:27.602Z,2.09
2023-04-25T10:52:26.572Z,1.49
2023-04-25T10:53:28.161Z,1.58
2023-04-25T10:54:27.512Z,1.70
2023-04-25T10:55:27.487Z,1.31
2023-04-25T10:56:27.487Z,1.46
2023-04-25T10:57:27.465Z,1.48
2023-04-25T10:58:27.530Z,1.34
2023-04-25T10:59:27.529Z,1.38
2023-04-25T11:00:33.922Z,1.51
2023-04-25T11:01:27.349Z,1.53
2023-04-25T11:02:27.286Z,1.58
2023-04-25T11:03:27.302Z,1.46
2023-04-25T11:04:27.772Z,1.11
2023-04-25T11:05:27.175Z,1.36
2023-04-25T11:07:48.067Z,2.44
2023-04-25T11:08:47.017Z,1.87
2023-04-25T11:09:46.399Z,1.33
2023-04-25T11:10:46.395Z,1.61
2023-04-25T11:11:46.149Z,1.53
2023-04-25T11:12:46.136Z,1.49
2023-04-25T11:13:46.394Z,1.35
2023-04-25T11:14:46.085Z,1.85
2023-04-25T11:15:46.065Z,1.45
2023-04-25T11:16:46.461Z,1.63
2023-04-25T11:17:46.263Z,1.43
2023-04-25T11:18:46.046Z,1.73
2023-04-25T11:19:46.407Z,1.75
2023-04-25T11:20:46.028Z,1.41
2023-04-25T11:21:46.464Z,1.43
2023-04-25T11:22:46.428Z,1.62
2023-04-25T11:23:46.089Z,1.35
2023-04-25T11:24:46.223Z,1.66
2023-04-25T11:25:46.129Z,1.91
2023-04-25T11:26:46.435Z,1.60
2023-04-25T11:27:46.425Z,1.59
2023-04-25T11:28:46.326Z,1.49
2023-04-25T11:29:46.325Z,1.20
2023-04-25T11:30:46.398Z,1.28
2023-04-25T11:31:46.536Z,1.66
2023-04-25T11:32:46.949Z,1.66
2023-04-25T11:33:46.598Z,1.55
2023-04-25T11:34:46.672Z,1.41
2023-04-25T11:35:46.922Z,1.50
2023-04-25T11:36:46.780Z,1.41
2023-04-25T11:37:46.829Z,1.70
2023-04-25T11:38:46.885Z,1.61
2023-04-25T11:39:46.935Z,1.64
2023-04-25T11:40:47.458Z,1.76
2023-04-25T11:41:47.034Z,1.24
2023-04-25T11:42:47.122Z,1.55
2023-04-25T11:43:47.177Z,1.58
2023-04-25T11:44:47.424Z,1.80
2023-04-25T11:45:47.270Z,1.62
2023-04-25T11:46:47.240Z,1.79
2023-04-25T11:47:47.312Z,1.41
2023-04-25T11:48:48.655Z,1.41
2023-04-25T11:49:47.407Z,1.42
2023-04-25T11:50:47.387Z,1.55
2023-04-25T11:51:47.418Z,1.18
2023-04-25T11:52:47.915Z,1.71
2023-04-25T11:53:47.510Z,1.46
2023-04-25T11:54:47.523Z,1.97
2023-04-25T11:55:47.567Z,1.51
2023-04-25T11:56:48.029Z,1.66
2023-04-25T11:57:47.933Z,1.83
2023-04-25T11:58:47.925Z,1.61
2023-04-25T11:59:47.796Z,1.57
2023-04-25T12:00:50.462Z,1.69
2023-04-25T12:01:47.976Z,1.73
2023-04-25T12:02:48.613Z,1.65
2023-04-25T12:03:48.421Z,1.77
2023-04-25T12:04:48.393Z,1.66
2023-04-25T12:05:48.505Z,1.99
2023-04-25T12:06:48.469Z,1.97
2023-04-25T12:07:48.422Z,1.52
2023-04-25T12:08:48.513Z,1.64
2023-04-25T12:09:48.403Z,1.80
2023-04-25T12:10:48.452Z,1.82
2023-04-25T12:11:48.544Z,1.89
2023-04-25T12:12:49.554Z,2.67
2023-04-25T12:13:48.676Z,3.49
2023-04-25T12:14:48.917Z,1.88
2023-04-25T12:15:48.842Z,2.38
2023-04-25T12:16:48.801Z,1.90
2023-04-25T12:17:48.897Z,1.91
2023-04-25T12:18:49.086Z,2.42
2023-04-25T12:19:49.432Z,2.17
2023-04-25T12:20:49.024Z,2.91
2023-04-25T12:22:48.477Z,1.61
2023-04-25T12:23:49.450Z,1.65
2023-04-25T12:24:50.039Z,1.73
2023-04-25T12:25:49.657Z,1.64
2023-04-25T12:26:49.450Z,1.71
2023-04-25T12:27:49.518Z,2.76
2023-04-25T12:28:49.896Z,1.50
2023-04-25T12:29:50.167Z,1.68
2023-04-25T12:30:49.751Z,1.89
2023-04-25T12:31:49.904Z,1.52
2023-04-25T12:32:49.976Z,1.59
2023-04-25T12:33:49.931Z,1.79
2023-04-25T12:34:50.433Z,1.48
2023-04-25T12:35:51.150Z,2.03
2023-04-25T12:36:50.066Z,1.71
2023-04-25T12:37:50.143Z,1.52
2023-04-25T12:38:50.436Z,1.77
2023-04-25T12:39:50.386Z,1.36
2023-04-25T12:40:50.443Z,1.55
2023-04-25T12:41:50.378Z,1.68
2023-04-25T12:42:50.918Z,1.60
2023-04-25T12:43:50.508Z,1.52
2023-04-25T12:44:50.700Z,1.64
2023-04-25T12:45:50.738Z,1.50
2023-04-25T12:46:50.994Z,1.71
2023-04-25T12:47:50.963Z,1.89
2023-04-25T12:48:51.263Z,1.47
2023-04-25T12:49:51.084Z,1.82
2023-04-25T12:50:51.468Z,1.66
2023-04-25T12:51:51.257Z,2.00
2023-04-25T12:52:51.483Z,1.56
2023-04-25T12:53:51.385Z,1.64
2023-04-25T12:54:51.431Z,1.49
2023-04-25T12:55:51.445Z,2.11
2023-04-25T12:56:51.487Z,1.64
2023-04-25T12:57:51.920Z,1.40
2023-04-25T12:58:51.732Z,1.20
2023-04-25T12:59:51.682Z,1.60
2023-04-25T13:00:51.903Z,2.00
2023-04-25T13:01:51.911Z,1.47
2023-04-25T13:02:52.609Z,1.62
2023-04-25T13:03:52.362Z,1.35
2023-04-25T13:04:53.496Z,0.91
2023-04-25T13:05:52.468Z,1.03
2023-04-25T13:06:52.265Z,1.36
2023-04-25T13:07:52.334Z,1.26
2023-04-25T13:08:52.758Z,1.23
2023-04-25T13:09:52.473Z,1.05
2023-04-25T13:10:52.944Z,1.33
2023-04-25T13:11:54.894Z,1.10
2023-04-25T13:12:52.807Z,1.29
2023-04-25T13:13:53.507Z,0.96
2023-04-25T13:14:52.912Z,1.38
2023-04-25T13:15:53.429Z,0.93
2023-04-25T13:16:53.182Z,0.98
2023-04-25T13:17:53.505Z,1.15
2023-04-25T13:18:53.097Z,1.10
2023-04-25T13:19:53.133Z,1.83
2023-04-25T13:20:53.421Z,1.35
2023-04-25T13:21:53.252Z,1.55
2023-04-25T13:22:53.276Z,1.75